Time;durP1;ratioP1;P1;durP2;ratioP2;P2;SDS_P1;SDS_P2;PMS_P1;PMS_P2;Temp;Humidity;BMP_temperature;BMP_pressure;BME280_temperature;BME280_humidity;BME280_pressure;Samples;Min_cycle;Max_cycle;Signal;HPM_P1;HPM_P2
2021/04/21 00:00:23;;;;;;;2.55;2.35;;;21.00;54.10;;;;;;5101819;28;20036;-37
2021/04/21 00:02:52;;;;;;;2.45;2.25;;;20.90;54.10;;;;;;5084982;28;20024;-37
2021/04/21 00:05:19;;;;;;;2.60;2.40;;;20.90;54.00;;;;;;5086040;28;20025;-37
2021/04/21 00:07:45;;;;;;;2.47;2.28;;;20.90;53.90;;;;;;5085495;28;20056;-37
2021/04/21 00:10:12;;;;;;;2.90;2.65;;;20.90;54.00;;;;;;5076565;28;20062;-37
2021/04/21 00:12:38;;;;;;;2.33;2.13;;;20.90;53.90;;;;;;5093715;28;20024;-37
2021/04/21 00:15:11;;;;;;;2.33;2.13;;;20.90;53.90;;;;;;5086067;28;20253;-37
2021/04/21 00:17:39;;;;;;;2.65;2.35;;;20.90;53.90;;;;;;5084405;28;20040;-37
2021/04/21 00:20:06;;;;;;;2.85;2.22;;;20.90;53.90;;;;;;5084558;28;20028;-37
2021/04/21 00:22:32;;;;;;;2.78;2.50;;;20.90;54.50;;;;;;5067636;28;20097;-37
2021/04/21 00:24:58;;;;;;;2.40;2.20;;;20.90;54.00;;;;;;5084380;28;20096;-37
2021/04/21 00:27:28;;;;;;;2.50;2.30;;;20.90;54.00;;;;;;5084112;28;20036;-37
2021/04/21 00:30:01;;;;;;;4.38;2.50;;;20.90;54.00;;;;;;5084567;28;20043;-40
2021/04/21 00:32:27;;;;;;;2.78;2.28;;;20.90;54.00;;;;;;5083974;28;20024;-38
2021/04/21 00:34:56;;;;;;;2.60;2.40;;;20.90;54.00;;;;;;5101375;28;20040;-37
2021/04/21 00:37:25;;;;;;;2.97;2.60;;;20.90;54.10;;;;;;5084300;28;20107;-37
2021/04/21 00:39:51;;;;;;;2.38;2.15;;;20.80;54.00;;;;;;5078384;28;20028;-37
2021/04/21 00:42:23;;;;;;;2.55;2.35;;;20.80;53.90;;;;;;5083644;28;20026;-37
2021/04/21 00:45:15;;;;;;;2.60;2.40;;;20.80;53.90;;;;;;5102187;28;20690;-37
2021/04/21 00:47:41;;;;;;;2.50;2.30;;;20.80;54.00;;;;;;5105374;28;20044;-37
2021/04/21 00:50:17;;;;;;;2.40;2.20;;;20.80;53.90;;;;;;5105591;28;20111;-37
2021/04/21 00:53:24;;;;;;;2.85;2.55;;;20.80;54.00;;;;;;5096799;28;20036;-37
2021/04/21 00:56:33;;;;;;;3.03;2.60;;;20.80;54.00;;;;;;5062578;28;20483;-37
2021/04/21 00:59:14;;;;;;;2.75;2.55;;;20.80;53.90;;;;;;5045849;28;20119;-37
2021/04/21 01:01:40;;;;;;;4.18;2.63;;;20.70;53.90;;;;;;5046994;28;20037;-37
2021/04/21 01:04:07;;;;;;;2.85;2.60;;;20.70;54.00;;;;;;5029333;28;20033;-37
2021/04/21 01:06:36;;;;;;;3.38;2.83;;;20.70;53.90;;;;;;5028996;28;20033;-37
2021/04/21 01:09:04;;;;;;;2.97;2.67;;;20.70;53.90;;;;;;5029424;28;20617;-37
2021/04/21 01:12:01;;;;;;;2.78;2.58;;;20.70;54.10;;;;;;5078683;28;20116;-37
2021/04/21 01:14:28;;;;;;;2.50;2.30;;;20.70;54.30;;;;;;5040059;28;20072;-37
2021/04/21 01:16:59;;;;;;;2.90;2.60;;;20.70;54.50;;;;;;5049863;28;20029;-37
2021/04/21 01:19:42;;;;;;;4.72;2.80;;;20.60;54.70;;;;;;5045508;28;20033;-37
2021/04/21 01:22:22;;;;;;;3.60;3.00;;;20.60;55.20;;;;;;5044976;28;20031;-37
2021/04/21 01:25:16;;;;;;;3.38;3.08;;;20.60;55.20;;;;;;5043971;28;20033;-37
2021/04/21 01:27:51;;;;;;;3.65;2.97;;;20.60;55.40;;;;;;5064170;28;20048;-38
2021/04/21 01:30:19;;;;;;;3.53;3.22;;;20.60;55.00;;;;;;5064438;28;20063;-37
2021/04/21 01:32:47;;;;;;;3.72;3.05;;;20.60;54.80;;;;;;5064591;28;20092;-37
2021/04/21 01:35:20;;;;;;;3.25;2.95;;;20.60;54.70;;;;;;5064023;28;20029;-37
2021/04/21 01:37:46;;;;;;;3.15;2.88;;;20.50;54.60;;;;;;5046942;28;20025;-37
2021/04/21 01:40:25;;;;;;;4.07;3.00;;;20.50;54.50;;;;;;5072790;28;20088;-36
2021/04/21 01:42:53;;;;;;;3.97;3.20;;;20.50;54.50;;;;;;5114557;27;20035;-36
2021/04/21 01:45:23;;;;;;;3.10;2.80;;;20.50;54.60;;;;;;5102882;28;20091;-36
2021/04/21 01:47:49;;;;;;;3.53;3.22;;;20.50;54.60;;;;;;5103107;28;20043;-37
2021/04/21 01:50:17;;;;;;;4.40;2.92;;;20.50;54.80;;;;;;5103256;28;20052;-37
2021/04/21 01:53:01;;;;;;;;;;;20.40;54.70;;;;;;5096177;28;20440;-37
2021/04/21 01:55:54;;;;;;;3.50;3.20;;;20.40;54.70;;;;;;5083593;28;19904;-37
2021/04/21 01:58:38;;;;;;;3.67;3.22;;;20.40;54.90;;;;;;5082587;28;20069;-37
2021/04/21 02:01:23;;;;;;;4.22;2.78;;;20.40;55.00;;;;;;5082619;28;20021;-37
2021/04/21 02:03:54;;;;;;;3.47;3.17;;;20.30;54.80;;;;;;5082829;28;20028;-38
2021/04/21 02:06:39;;;;;;;4.32;3.40;;;20.30;54.70;;;;;;5082369;28;20028;-36
2021/04/21 02:09:42;;;;;;;3.20;2.90;;;20.30;54.50;;;;;;5082323;28;20052;-40
2021/04/21 02:12:37;;;;;;;4.13;2.90;;;20.30;54.30;;;;;;5077804;28;20062;-36
2021/04/21 02:15:21;;;;;;;3.17;2.88;;;20.30;54.30;;;;;;5089124;28;20064;-36
2021/04/21 02:18:04;;;;;;;3.38;3.08;;;20.30;54.30;;;;;;5083356;28;20040;-37
2021/04/21 02:20:52;;;;;;;3.80;3.42;;;20.30;53.90;;;;;;5082150;28;20040;-37
2021/04/21 02:23:27;;;;;;;3.53;3.08;;;20.30;54.10;;;;;;5089513;28;20085;-37
2021/04/21 02:26:13;;;;;;;3.53;3.22;;;20.20;53.90;;;;;;5061801;28;20089;-38
2021/04/21 02:29:02;;;;;;;3.67;3.28;;;20.20;54.10;;;;;;5062061;28;20040;-37
2021/04/21 02:31:49;;;;;;;3.13;2.80;;;20.20;54.20;;;;;;5063024;28;20053;-37
2021/04/21 02:34:23;;;;;;;5.20;3.20;;;20.20;54.00;;;;;;5062262;28;20086;-37
2021/04/21 02:37:13;;;;;;;4.00;3.00;;;20.20;53.90;;;;;;5061769;28;20029;-36
2021/04/21 02:39:58;;;;;;;4.03;3.28;;;20.10;53.90;;;;;;5069882;28;20035;-37
2021/04/21 02:42:58;;;;;;;3.75;3.40;;;20.10;53.80;;;;;;5093119;28;20060;-37
2021/04/21 02:45:27;;;;;;;3.75;3.10;;;20.10;53.80;;;;;;5082978;28;20052;-37
2021/04/21 02:48:07;;;;;;;3.35;3.00;;;20.10;53.80;;;;;;5084640;28;20035;-37
2021/04/21 02:50:47;;;;;;;3.67;3.38;;;20.10;54.30;;;;;;5066583;28;20039;-37
2021/04/21 02:53:23;;;;;;;3.30;3.00;;;20.00;53.80;;;;;;5080841;28;20759;-36
2021/04/21 02:56:08;;;;;;;3.70;3.38;;;20.00;53.80;;;;;;5081897;28;20067;-37
2021/04/21 02:58:51;;;;;;;3.72;3.33;;;20.00;53.90;;;;;;5099862;28;20838;-37
2021/04/21 03:01:20;;;;;;;3.65;3.22;;;20.00;53.80;;;;;;5083122;28;20033;-37
2021/04/21 03:04:17;;;;;;;5.43;3.63;;;20.00;53.80;;;;;;5082896;28;20571;-37
2021/04/21 03:06:48;;;;;;;3.42;3.13;;;20.00;53.80;;;;;;5075617;28;20040;-36
2021/04/21 03:09:19;;;;;;;5.03;3.45;;;20.00;53.90;;;;;;5082362;28;20040;-36
2021/04/21 03:11:46;;;;;;;4.53;3.55;;;19.90;53.90;;;;;;5096967;28;20032;-38
2021/04/21 03:14:12;;;;;;;3.40;3.10;;;19.90;53.90;;;;;;5064568;28;20032;-36
2021/04/21 03:16:46;;;;;;;3.70;3.40;;;19.90;54.10;;;;;;5082878;28;20070;-37
2021/04/21 03:19:13;;;;;;;3.70;3.40;;;19.90;54.10;;;;;;5082886;28;20028;-37
2021/04/21 03:21:42;;;;;;;3.53;3.05;;;19.80;54.00;;;;;;5082197;28;20115;-37
2021/04/21 03:24:15;;;;;;;4.10;3.33;;;19.80;54.00;;;;;;5101313;28;20035;-37
2021/04/21 03:26:43;;;;;;;4.10;3.38;;;19.80;54.10;;;;;;5105895;28;20035;-36
2021/04/21 03:29:19;;;;;;;4.30;3.55;;;19.80;54.10;;;;;;5105259;28;20036;-36
2021/04/21 03:31:46;;;;;;;4.53;3.63;;;19.80;54.20;;;;;;5105934;28;20031;-40
2021/04/21 03:34:15;;;;;;;4.37;3.40;;;19.80;54.30;;;;;;5107156;28;20111;-37
2021/04/21 03:36:42;;;;;;;4.18;3.42;;;19.80;54.20;;;;;;5105666;28;20257;-37
2021/04/21 03:39:09;;;;;;;4.75;3.45;;;19.70;54.80;;;;;;5106926;28;20020;-37
2021/04/21 03:41:36;;;;;;;3.95;3.55;;;19.70;54.40;;;;;;5071804;28;20036;-37
2021/04/21 03:44:03;;;;;;;3.78;3.47;;;19.70;54.20;;;;;;5106846;28;20024;-37
2021/04/21 03:46:29;;;;;;;3.50;3.20;;;19.70;54.20;;;;;;5107071;28;20032;-36
2021/04/21 03:48:55;;;;;;;3.72;3.40;;;19.70;54.30;;;;;;5106428;28;20388;-36
2021/04/21 03:51:21;;;;;;;4.75;3.55;;;19.60;54.50;;;;;;5105713;28;20024;-37
2021/04/21 03:53:48;;;;;;;4.13;3.65;;;19.60;54.40;;;;;;5089250;28;20024;-37
2021/04/21 03:56:21;;;;;;;4.47;3.55;;;19.60;54.40;;;;;;5085137;28;20028;-36
2021/04/21 03:58:47;;;;;;;3.63;3.30;;;19.60;54.50;;;;;;5086155;28;20385;-36
2021/04/21 04:01:15;;;;;;;4.10;3.70;;;19.60;54.50;;;;;;5101868;28;20032;-36
2021/04/21 04:03:46;;;;;;;4.28;3.58;;;19.60;54.40;;;;;;5084987;28;20049;-36
2021/04/21 04:06:14;;;;;;;3.80;3.33;;;19.60;54.60;;;;;;5084721;28;20032;-36
2021/04/21 04:09:01;;;;;;;5.68;3.63;;;19.50;54.50;;;;;;5084494;28;20105;-36
2021/04/21 04:11:29;;;;;;;4.97;3.70;;;19.50;54.60;;;;;;5094320;28;20079;-36
2021/04/21 04:13:59;;;;;;;4.05;3.60;;;19.50;54.60;;;;;;5090326;28;20042;-36
2021/04/21 04:16:25;;;;;;;3.72;3.42;;;19.50;54.70;;;;;;5068315;28;20032;-36
2021/04/21 04:18:51;;;;;;;4.25;3.63;;;19.50;54.70;;;;;;5067684;28;20080;-36
2021/04/21 04:21:17;;;;;;;4.38;3.92;;;19.40;54.70;;;;;;5068186;28;20032;-37
2021/04/21 04:23:43;;;;;;;4.57;3.80;;;19.40;54.80;;;;;;5067859;28;20092;-36
2021/04/21 04:26:09;;;;;;;4.18;3.55;;;19.40;54.60;;;;;;5084423;28;20035;-36
2021/04/21 04:28:36;;;;;;;5.20;4.00;;;19.40;55.30;;;;;;5100826;28;20036;-36
2021/04/21 04:31:04;;;;;;;3.88;3.50;;;19.40;54.70;;;;;;5085758;28;20028;-36
2021/04/21 04:33:30;;;;;;;4.72;3.83;;;19.40;54.80;;;;;;5085756;28;20048;-36
2021/04/21 04:35:56;;;;;;;4.22;3.45;;;19.40;54.80;;;;;;5084934;28;20057;-36
2021/04/21 04:38:23;;;;;;;4.05;3.65;;;19.30;54.90;;;;;;5084081;28;20058;-36
2021/04/21 04:40:51;;;;;;;4.03;3.65;;;19.30;55.00;;;;;;5099084;28;20039;-36
2021/04/21 04:43:18;;;;;;;4.78;4.00;;;19.30;55.00;;;;;;5087782;28;20036;-36
2021/04/21 04:45:44;;;;;;;4.25;3.65;;;19.30;55.00;;;;;;5088223;28;20034;-36
2021/04/21 04:48:16;;;;;;;4.07;3.67;;;19.30;54.90;;;;;;5083743;28;20568;-36
2021/04/21 04:50:42;;;;;;;4.03;3.63;;;19.20;55.50;;;;;;5084184;28;20032;-36
2021/04/21 04:53:09;;;;;;;4.10;3.70;;;19.20;55.00;;;;;;5067281;28;20027;-37
2021/04/21 04:55:35;;;;;;;4.25;3.85;;;19.20;55.00;;;;;;5083733;28;20064;-36
2021/04/21 04:58:01;;;;;;;5.18;3.63;;;19.20;55.00;;;;;;5100736;28;20137;-36
2021/04/21 05:00:28;;;;;;;5.47;4.18;;;19.20;55.10;;;;;;5100659;28;20180;-38
2021/04/21 05:03:12;;;;;;;4.20;3.70;;;19.20;55.20;;;;;;5085389;28;20025;-36
2021/04/21 05:05:38;;;;;;;3.55;3.25;;;19.20;55.20;;;;;;5085119;28;20035;-36
2021/04/21 05:08:11;;;;;;;4.10;3.70;;;19.10;55.10;;;;;;5083408;28;20052;-37
2021/04/21 05:10:41;;;;;;;4.60;4.10;;;19.10;55.30;;;;;;5096622;28;20020;-37
2021/04/21 05:13:08;;;;;;;3.80;3.47;;;19.10;55.30;;;;;;5087554;28;20028;-36
2021/04/21 05:15:38;;;;;;;4.18;3.78;;;19.10;55.30;;;;;;5094793;28;20040;-36
2021/04/21 05:18:10;;;;;;;4.07;3.75;;;19.10;55.20;;;;;;5105119;28;20020;-36
2021/04/21 05:20:39;;;;;;;3.95;3.40;;;19.10;55.30;;;;;;5092896;28;20051;-36
2021/04/21 05:23:17;;;;;;;4.43;4.03;;;19.00;55.30;;;;;;5087256;28;20020;-36
2021/04/21 05:26:21;;;;;;;4.35;3.95;;;19.00;55.40;;;;;;5084637;28;20024;-37
2021/04/21 05:29:32;;;;;;;3.67;3.38;;;19.00;55.40;;;;;;5084017;28;20417;-37
2021/04/21 05:32:35;;;;;;;4.20;3.80;;;19.00;55.50;;;;;;5075823;28;20032;-36
2021/04/21 05:35:14;;;;;;;4.32;3.92;;;19.00;55.60;;;;;;5084602;28;20024;-38
2021/04/21 05:38:05;;;;;;;4.53;3.97;;;18.90;55.50;;;;;;5103105;28;20093;-37
2021/04/21 05:40:50;;;;;;;5.30;3.78;;;18.90;55.40;;;;;;5091804;28;20095;-36
2021/04/21 05:43:37;;;;;;;4.07;3.65;;;18.90;55.50;;;;;;5084426;28;20070;-40
2021/04/21 05:46:41;;;;;;;4.90;4.27;;;18.90;55.60;;;;;;5084357;28;20095;-37
2021/04/21 05:49:25;;;;;;;4.30;3.88;;;18.80;55.60;;;;;;5083651;28;20036;-38
2021/04/21 05:52:10;;;;;;;4.25;3.85;;;18.80;55.70;;;;;;5084030;28;20028;-36
2021/04/21 05:55:03;;;;;;;5.22;3.92;;;18.80;55.80;;;;;;5084216;28;20039;-36
2021/04/21 05:57:38;;;;;;;4.35;3.95;;;18.80;56.00;;;;;;5082593;28;20513;-36
2021/04/21 06:00:21;;;;;;;4.43;4.03;;;18.80;55.90;;;;;;5083591;28;20028;-37
2021/04/21 06:02:47;;;;;;;4.65;4.25;;;18.80;56.00;;;;;;5083793;28;20025;-36
2021/04/21 06:05:15;;;;;;;4.10;3.70;;;18.80;55.70;;;;;;5082628;28;20035;-36
2021/04/21 06:07:43;;;;;;;;;;;18.70;55.80;;;;;;5103370;28;20059;-36
2021/04/21 06:10:24;;;;;;;4.88;4.38;;;18.70;55.90;;;;;;5094113;28;19908;-36
2021/04/21 06:12:55;;;;;;;4.70;3.90;;;18.70;56.10;;;;;;5076373;28;20572;-36
2021/04/21 06:15:25;;;;;;;4.47;4.00;;;18.70;56.20;;;;;;5083580;28;20074;-39
2021/04/21 06:17:59;;;;;;;4.53;4.13;;;18.60;56.30;;;;;;5083698;28;20067;-37
2021/04/21 06:20:51;;;;;;;4.55;4.03;;;18.60;56.00;;;;;;5083297;28;20060;-36
2021/04/21 06:23:24;;;;;;;4.40;4.00;;;18.60;56.30;;;;;;5082332;28;20025;-36
2021/04/21 06:26:01;;;;;;;4.38;3.97;;;18.60;56.30;;;;;;5082056;28;20071;-36
2021/04/21 06:28:27;;;;;;;4.53;4.07;;;18.60;56.20;;;;;;5083445;28;20115;-38
2021/04/21 06:31:08;;;;;;;4.75;4.00;;;18.60;56.20;;;;;;5083136;28;20090;-36
2021/04/21 06:33:44;;;;;;;4.20;3.80;;;18.60;56.40;;;;;;5083435;28;20751;-36
2021/04/21 06:36:12;;;;;;;4.20;3.80;;;18.60;56.20;;;;;;5090009;28;20128;-36
2021/04/21 06:38:38;;;;;;;4.82;4.35;;;18.60;56.30;;;;;;5101836;28;20016;-36
2021/04/21 06:41:05;;;;;;;4.47;4.07;;;18.50;56.40;;;;;;5085953;28;20032;-37
2021/04/21 06:43:32;;;;;;;5.35;3.72;;;18.50;56.30;;;;;;5083275;28;20021;-36
2021/04/21 06:45:59;;;;;;;4.72;4.32;;;18.50;56.50;;;;;;5083293;28;20483;-36
2021/04/21 06:48:33;;;;;;;4.73;4.00;;;18.50;56.60;;;;;;5082989;28;20051;-36
2021/04/21 06:51:11;;;;;;;4.32;3.92;;;18.50;56.60;;;;;;5082872;28;20024;-36
2021/04/21 06:53:37;;;;;;;5.18;4.68;;;18.40;56.50;;;;;;5081642;28;20032;-36
2021/04/21 06:56:07;;;;;;;4.80;4.30;;;18.40;56.60;;;;;;5083065;28;20444;-36
2021/04/21 06:58:34;;;;;;;4.22;3.83;;;18.40;56.70;;;;;;5082714;28;20036;-36
2021/04/21 07:01:24;;;;;;;4.53;3.97;;;18.40;56.70;;;;;;5082846;28;20033;-37
2021/04/21 07:03:50;;;;;;;4.72;4.25;;;18.40;56.90;;;;;;5082881;28;20048;-36
2021/04/21 07:06:16;;;;;;;5.20;4.18;;;18.30;56.60;;;;;;5089219;28;20032;-36
2021/04/21 07:08:44;;;;;;;4.95;4.15;;;18.30;56.80;;;;;;5101555;28;20059;-36
2021/04/21 07:11:11;;;;;;;5.07;4.20;;;18.30;56.70;;;;;;5084487;28;20024;-36
2021/04/21 07:13:48;;;;;;;4.80;4.15;;;18.30;56.90;;;;;;5081379;28;20029;-39
2021/04/21 07:16:24;;;;;;;4.60;4.10;;;18.30;57.00;;;;;;5081556;28;20039;-36
2021/04/21 07:18:53;;;;;;;5.53;4.50;;;18.20;57.10;;;;;;5083096;28;20028;-36
2021/04/21 07:21:19;;;;;;;5.07;4.57;;;18.20;56.90;;;;;;5100568;28;20021;-36
2021/04/21 07:23:55;;;;;;;6.10;4.40;;;18.20;56.80;;;;;;5086072;28;20030;-37
2021/04/21 07:26:48;;;;;;;4.43;4.03;;;18.20;57.00;;;;;;5087248;28;20028;-36
2021/04/21 07:29:18;;;;;;;4.97;4.18;;;18.20;57.00;;;;;;5081291;28;20718;-37
2021/04/21 07:31:44;;;;;;;5.63;4.32;;;18.20;57.00;;;;;;5082465;28;20090;-36
2021/04/21 07:34:33;;;;;;;4.82;4.05;;;18.20;57.00;;;;;;5082446;28;20024;-36
2021/04/21 07:36:59;;;;;;;5.15;4.10;;;18.20;57.10;;;;;;5096132;28;20503;-36
2021/04/21 07:39:33;;;;;;;4.63;4.20;;;18.10;57.10;;;;;;5100476;28;20036;-36
2021/04/21 07:42:00;;;;;;;5.22;4.20;;;18.10;57.00;;;;;;5082279;28;20440;-36
2021/04/21 07:44:36;;;;;;;5.33;4.67;;;18.10;57.20;;;;;;5082381;28;20078;-37
2021/04/21 07:47:12;;;;;;;4.40;4.00;;;18.10;57.30;;;;;;5082481;28;20055;-36
2021/04/21 07:49:40;;;;;;;4.93;4.10;;;18.00;57.20;;;;;;5082444;28;20083;-36
2021/04/21 07:52:06;;;;;;;4.55;4.13;;;18.00;57.30;;;;;;5081958;28;20020;-36
2021/04/21 07:54:33;;;;;;;4.38;3.97;;;18.00;57.30;;;;;;5081197;28;20028;-36
2021/04/21 07:57:16;;;;;;;4.68;4.05;;;17.90;57.30;;;;;;5081105;28;20686;-36
2021/04/21 07:59:44;;;;;;;4.53;4.13;;;18.00;57.30;;;;;;5082255;28;20090;-37
2021/04/21 08:02:19;;;;;;;4.95;4.43;;;17.90;57.40;;;;;;5081977;28;20039;-36
2021/04/21 08:05:09;;;;;;;5.57;4.47;;;18.00;57.40;;;;;;5082351;28;20028;-36
2021/04/21 08:07:40;;;;;;;4.90;4.38;;;17.90;57.40;;;;;;5100578;28;20048;-36
2021/04/21 08:10:08;;;;;;;5.13;4.70;;;17.90;57.40;;;;;;5094621;28;20032;-36
2021/04/21 08:12:35;;;;;;;4.90;4.30;;;17.90;57.40;;;;;;5084187;28;20032;-36
2021/04/21 08:15:11;;;;;;;5.28;4.22;;;17.90;57.50;;;;;;5085861;28;20029;-36
2021/04/21 08:17:56;;;;;;;5.43;4.85;;;17.90;57.50;;;;;;5084721;28;20035;-36
2021/04/21 08:20:42;;;;;;;4.90;4.35;;;17.80;57.50;;;;;;5085928;28;20101;-36
2021/04/21 08:23:10;;;;;;;4.20;3.80;;;17.80;57.50;;;;;;5085110;28;20021;-36
2021/04/21 08:25:36;;;;;;;4.80;4.35;;;17.80;57.70;;;;;;5085309;28;20028;-36
2021/04/21 08:28:02;;;;;;;5.88;4.40;;;17.80;57.60;;;;;;5085227;28;20044;-36
2021/04/21 08:30:29;;;;;;;4.72;4.22;;;17.80;57.60;;;;;;5085614;28;20115;-36
2021/04/21 08:32:56;;;;;;;4.97;4.13;;;17.80;57.50;;;;;;5085397;28;20078;-36
2021/04/21 08:35:25;;;;;;;4.88;4.47;;;17.70;57.50;;;;;;5089094;28;20047;-36
2021/04/21 08:37:54;;;;;;;4.35;3.70;;;17.70;57.60;;;;;;5105711;28;20028;-36
2021/04/21 08:40:21;;;;;;;5.15;4.40;;;17.80;57.70;;;;;;5095866;28;20714;-36
2021/04/21 08:42:52;;;;;;;4.80;4.30;;;17.70;57.50;;;;;;5084783;28;20039;-36
2021/04/21 08:45:18;;;;;;;5.28;4.75;;;17.70;57.60;;;;;;5085263;28;20046;-36
2021/04/21 08:47:45;;;;;;;5.10;4.60;;;17.70;57.60;;;;;;5083938;28;20033;-36
2021/04/21 08:50:16;;;;;;;7.22;4.45;;;17.70;57.60;;;;;;5083856;28;20029;-36
2021/04/21 08:52:58;;;;;;;4.90;4.32;;;17.60;57.70;;;;;;5085085;28;20050;-36
2021/04/21 08:55:27;;;;;;;4.78;4.22;;;17.60;57.70;;;;;;5085151;28;20031;-36
2021/04/21 08:57:53;;;;;;;5.50;4.22;;;17.60;57.70;;;;;;5064939;28;20056;-36
2021/04/21 09:00:20;;;;;;;5.05;4.55;;;17.60;57.80;;;;;;5063525;28;20029;-37
2021/04/21 09:02:47;;;;;;;5.05;4.55;;;17.60;57.80;;;;;;5064707;28;20040;-36
2021/04/21 09:05:15;;;;;;;4.65;4.22;;;17.60;57.80;;;;;;5064831;28;20032;-36
2021/04/21 09:07:41;;;;;;;5.25;4.63;;;17.60;57.80;;;;;;5064660;28;20053;-36
2021/04/21 09:10:08;;;;;;;5.65;4.75;;;17.60;58.40;;;;;;5080910;28;20028;-36
2021/04/21 09:12:35;;;;;;;5.20;4.50;;;17.60;57.80;;;;;;5104611;28;20024;-36
2021/04/21 09:15:01;;;;;;;4.50;4.10;;;17.50;57.80;;;;;;5100464;28;20024;-36
2021/04/21 09:17:31;;;;;;;5.13;4.63;;;17.50;57.80;;;;;;5103601;28;20083;-37
2021/04/21 09:19:58;;;;;;;4.57;4.15;;;17.50;57.90;;;;;;5096644;28;20020;-36
2021/04/21 09:22:25;;;;;;;;;;;17.50;57.90;;;;;;5084554;28;20028;-36
2021/04/21 09:25:00;;;;;;;5.22;4.05;;;17.50;58.00;;;;;;5084364;28;19905;-37
2021/04/21 09:27:34;;;;;;;5.82;4.97;;;17.40;57.90;;;;;;5100978;28;20071;-36
2021/04/21 09:30:18;;;;;;;4.60;4.18;;;17.40;58.00;;;;;;5104456;28;20036;-36
2021/04/21 09:32:52;;;;;;;5.35;4.85;;;17.40;57.90;;;;;;5102974;28;20024;-36
2021/04/21 09:35:33;;;;;;;4.97;4.22;;;17.40;57.90;;;;;;5104627;28;20024;-36
2021/04/21 09:38:13;;;;;;;6.10;5.15;;;17.40;57.90;;;;;;5103143;28;20028;-36
2021/04/21 09:40:52;;;;;;;5.55;4.70;;;17.40;58.00;;;;;;5091948;28;20056;-36
2021/04/21 09:43:22;;;;;;;4.90;4.45;;;17.40;58.00;;;;;;5083859;28;20032;-37
2021/04/21 09:45:49;;;;;;;5.82;5.22;;;17.40;58.10;;;;;;5084005;28;20023;-36
2021/04/21 09:48:22;;;;;;;5.00;4.50;;;17.30;58.10;;;;;;5083857;28;20036;-36
2021/04/21 09:51:06;;;;;;;5.20;4.70;;;17.40;58.10;;;;;;5083960;28;20024;-36
2021/04/21 09:53:39;;;;;;;5.43;4.93;;;17.30;58.10;;;;;;5069704;28;20024;-36
2021/04/21 09:56:07;;;;;;;5.13;4.60;;;17.30;58.10;;;;;;5074285;28;20032;-37
2021/04/21 09:58:36;;;;;;;4.75;4.32;;;17.30;58.20;;;;;;5103937;28;20031;-36
2021/04/21 10:01:20;;;;;;;5.43;4.63;;;17.30;58.20;;;;;;5104105;28;20032;-36
2021/04/21 10:03:50;;;;;;;5.78;4.35;;;17.20;58.10;;;;;;5102541;28;20024;-36
2021/04/21 10:06:22;;;;;;;5.47;4.57;;;17.20;58.20;;;;;;5102816;28;20087;-36
2021/04/21 10:08:48;;;;;;;4.97;4.47;;;17.30;58.20;;;;;;5102304;28;20048;-36
2021/04/21 10:11:14;;;;;;;5.25;4.75;;;17.20;58.30;;;;;;5086069;28;20040;-36
2021/04/21 10:13:45;;;;;;;5.00;4.40;;;17.20;58.30;;;;;;5082609;28;20107;-36
2021/04/21 10:16:12;;;;;;;5.20;4.70;;;17.20;58.80;;;;;;5083428;28;20024;-36
2021/04/21 10:18:38;;;;;;;6.20;4.80;;;17.20;58.30;;;;;;5083453;28;20024;-36
2021/04/21 10:21:05;;;;;;;4.78;4.28;;;17.10;58.40;;;;;;5083444;28;20052;-36
2021/04/21 10:23:32;;;;;;;5.07;4.57;;;17.10;58.40;;;;;;5069231;28;20032;-36
2021/04/21 10:26:05;;;;;;;5.05;4.55;;;17.10;58.40;;;;;;5071537;28;20051;-36
2021/04/21 10:28:32;;;;;;;5.03;4.35;;;17.10;58.40;;;;;;5103327;28;20050;-36
2021/04/21 10:30:58;;;;;;;;;;;17.10;58.40;;;;;;5100238;28;20089;-36
2021/04/21 10:33:26;;;;;;;5.03;4.47;;;17.10;58.40;;;;;;5102727;28;19908;-36
2021/04/21 10:35:55;;;;;;;5.13;4.63;;;17.00;58.40;;;;;;5102152;28;20136;-36
2021/04/21 10:38:23;;;;;;;5.25;4.55;;;17.00;58.50;;;;;;5103366;28;20032;-36
2021/04/21 10:40:50;;;;;;;4.80;4.40;;;17.00;58.50;;;;;;5087791;28;20036;-36
2021/04/21 10:43:36;;;;;;;5.22;4.70;;;17.00;58.50;;;;;;5082625;28;20031;-36
2021/04/21 10:46:02;;;;;;;5.60;4.88;;;17.00;58.50;;;;;;5081775;28;20036;-36
2021/04/21 10:48:38;;;;;;;5.03;4.55;;;17.00;58.50;;;;;;5082561;28;20036;-36
2021/04/21 10:51:24;;;;;;;5.40;4.90;;;17.00;58.50;;;;;;5082941;28;20035;-36
2021/04/21 10:53:50;;;;;;;4.88;4.38;;;17.00;58.70;;;;;;5065135;28;20033;-37
2021/04/21 10:56:20;;;;;;;6.43;4.53;;;16.90;58.50;;;;;;5074967;28;20062;-36
2021/04/21 10:58:56;;;;;;;5.75;4.43;;;16.90;58.50;;;;;;5102865;28;20028;-36
2021/04/21 11:01:36;;;;;;;5.05;4.55;;;16.90;58.60;;;;;;5103024;28;20028;-37
2021/04/21 11:04:04;;;;;;;6.13;4.95;;;16.90;58.60;;;;;;5103066;28;20031;-36
2021/04/21 11:06:39;;;;;;;;;;;16.90;58.60;;;;;;5103592;28;20028;-36
2021/04/21 11:09:11;;;;;;;4.85;4.45;;;16.90;58.70;;;;;;5102966;28;19969;-36
2021/04/21 11:11:39;;;;;;;4.78;4.35;;;16.80;58.70;;;;;;5064022;28;20581;-36
2021/04/21 11:14:08;;;;;;;5.28;4.68;;;16.80;58.80;;;;;;5098513;28;20044;-37
2021/04/21 11:16:35;;;;;;;5.70;4.57;;;16.80;58.70;;;;;;5102989;28;20039;-36
2021/04/21 11:19:19;;;;;;;5.47;4.97;;;16.80;58.80;;;;;;5102576;28;20534;-36
2021/04/21 11:22:09;;;;;;;5.60;4.85;;;16.80;58.70;;;;;;5102751;28;20122;-37
2021/04/21 11:24:35;;;;;;;5.10;4.60;;;16.80;58.70;;;;;;5082321;28;20040;-36
2021/04/21 11:27:01;;;;;;;5.43;4.90;;;16.80;58.70;;;;;;5095208;28;20032;-37
2021/04/21 11:29:27;;;;;;;6.68;4.75;;;16.80;58.70;;;;;;5102786;28;20039;-37
2021/04/21 11:31:54;;;;;;;4.70;4.30;;;16.80;58.80;;;;;;5102798;28;20137;-36
2021/04/21 11:34:37;;;;;;;5.50;4.75;;;16.70;58.80;;;;;;5102597;28;20028;-36
2021/04/21 11:37:17;;;;;;;4.75;4.25;;;16.70;58.80;;;;;;5102595;28;20028;-36
2021/04/21 11:39:43;;;;;;;5.60;4.35;;;16.70;58.80;;;;;;5096636;28;20024;-36
2021/04/21 11:42:30;;;;;;;5.07;4.50;;;16.70;58.80;;;;;;5082144;28;20055;-36
2021/04/21 11:45:07;;;;;;;5.40;4.90;;;16.70;58.80;;;;;;5083625;28;20039;-36
2021/04/21 11:47:49;;;;;;;5.38;4.63;;;16.70;58.80;;;;;;5085848;28;20040;-38
2021/04/21 11:50:18;;;;;;;5.05;4.55;;;16.70;58.80;;;;;;5084984;28;20033;-36
2021/04/21 11:52:57;;;;;;;5.50;5.00;;;16.70;58.90;;;;;;5078622;28;20647;-36
2021/04/21 11:55:33;;;;;;;5.00;4.50;;;16.60;58.80;;;;;;5066199;28;20157;-36
2021/04/21 11:58:04;;;;;;;5.10;4.60;;;16.60;58.90;;;;;;5065692;28;20103;-37
2021/04/21 12:00:36;;;;;;;5.10;4.60;;;16.60;58.90;;;;;;5065946;28;20021;-36
2021/04/21 12:03:04;;;;;;;5.10;4.60;;;16.60;58.90;;;;;;5066071;28;20051;-36
2021/04/21 12:05:35;;;;;;;5.00;4.50;;;16.60;58.90;;;;;;5066232;28;20044;-36
2021/04/21 12:08:02;;;;;;;4.38;3.97;;;16.60;58.90;;;;;;5065272;28;20102;-37
2021/04/21 12:10:32;;;;;;;;;;;16.60;58.90;;;;;;5077136;28;20032;-36
2021/04/21 12:13:19;;;;;;;5.30;4.35;;;16.50;58.90;;;;;;5085593;28;19908;-36
2021/04/21 12:15:47;;;;;;;5.88;4.63;;;16.50;58.90;;;;;;5085517;28;20108;-36
2021/04/21 12:18:34;;;;;;;4.65;4.20;;;16.50;58.90;;;;;;5085392;28;20132;-36
2021/04/21 12:21:25;;;;;;;5.05;4.55;;;16.50;58.90;;;;;;5085411;28;20038;-36
2021/04/21 12:24:07;;;;;;;4.85;4.35;;;16.50;58.80;;;;;;5081512;28;20079;-36
2021/04/21 12:26:36;;;;;;;4.85;4.05;;;16.50;59.10;;;;;;5085767;28;20112;-36
2021/04/21 12:29:14;;;;;;;4.90;4.40;;;16.50;58.90;;;;;;5085098;28;20554;-37
2021/04/21 12:31:40;;;;;;;5.15;4.28;;;16.50;58.90;;;;;;5085285;28;20055;-36
2021/04/21 12:34:13;;;;;;;5.00;4.47;;;16.50;58.80;;;;;;5085466;28;20083;-36
2021/04/21 12:36:39;;;;;;;4.80;4.30;;;16.50;58.80;;;;;;5087123;28;20020;-36
2021/04/21 12:39:12;;;;;;;5.60;4.70;;;16.50;58.80;;;;;;5105536;28;20150;-36
2021/04/21 12:41:45;;;;;;;4.85;4.35;;;16.50;58.80;;;;;;5065222;28;20021;-36
2021/04/21 12:44:19;;;;;;;5.25;4.75;;;16.50;58.80;;;;;;5065070;28;20088;-36
2021/04/21 12:46:49;;;;;;;4.82;4.38;;;16.50;58.80;;;;;;5065030;28;20025;-36
2021/04/21 12:49:15;;;;;;;5.32;4.22;;;16.50;58.80;;;;;;5064881;28;20044;-36
2021/04/21 12:51:46;;;;;;;4.40;4.00;;;16.50;58.80;;;;;;5064889;28;20032;-41
2021/04/21 12:54:32;;;;;;;4.75;4.03;;;16.50;58.70;;;;;;5083059;28;20059;-41
2021/04/21 12:56:58;;;;;;;5.18;4.40;;;16.50;58.70;;;;;;5097144;28;20081;-37
2021/04/21 12:59:25;;;;;;;5.13;4.53;;;16.50;58.70;;;;;;5104853;28;20806;-36
2021/04/21 13:01:51;;;;;;;4.65;4.20;;;16.50;58.80;;;;;;5105107;28;20096;-36
2021/04/21 13:04:18;;;;;;;4.57;4.00;;;16.50;58.70;;;;;;5105229;28;20028;-35
2021/04/21 13:06:49;;;;;;;4.65;3.85;;;16.50;58.60;;;;;;5105063;28;20028;-36
2021/04/21 13:09:17;;;;;;;5.53;3.90;;;16.50;58.70;;;;;;5104068;28;20036;-36
2021/04/21 13:11:46;;;;;;;5.05;4.20;;;16.50;58.70;;;;;;5084692;28;20123;-36
2021/04/21 13:14:13;;;;;;;5.05;4.05;;;16.50;58.70;;;;;;5084771;28;20021;-36
2021/04/21 13:16:40;;;;;;;5.10;4.00;;;16.50;59.20;;;;;;5083335;28;20021;-36
2021/04/21 13:19:26;;;;;;;4.20;3.80;;;16.50;58.60;;;;;;5086808;28;20098;-36